createdAt,value
2016-04-07T00:00:58.574Z,7.66
2016-04-07T00:01:58.608Z,7.63
2016-04-07T00:02:58.642Z,7.61
2016-04-07T00:03:58.676Z,7.6
2016-04-07T00:04:58.725Z,7.6
2016-04-07T00:05:58.744Z,7.6
2016-04-07T00:06:58.778Z,7.57
2016-04-07T00:07:58.812Z,7.53
2016-04-07T00:08:58.846Z,7.58
2016-04-07T00:09:58.880Z,7.45
2016-04-07T00:10:58.758Z,7.53
2016-04-07T00:11:58.948Z,7.53
2016-04-07T00:12:58.966Z,7.51
2016-04-07T00:13:59.016Z,7.48
2016-04-07T00:14:59.034Z,7.58
2016-04-07T00:15:59.092Z,7.47
2016-04-07T00:16:59.170Z,7.47
2016-04-07T00:17:59.264Z,7.43
2016-04-07T00:18:59.327Z,7.43
2016-04-07T00:19:59.420Z,7.4
2016-04-07T00:20:59.467Z,7.39
2016-04-07T00:21:59.517Z,7.45
2016-04-07T00:22:59.567Z,7.43
2016-04-07T00:23:59.616Z,7.45
2016-04-07T00:24:59.666Z,7.48
2016-04-07T00:25:59.710Z,7.56
2016-04-07T00:26:59.734Z,7.48
2016-04-07T00:27:59.773Z,7.51
2016-04-07T00:28:59.830Z,7.47
2016-04-07T00:29:59.868Z,7.58
2016-04-07T00:30:59.891Z,7.45
2016-04-07T00:31:59.927Z,7.39
2016-04-07T00:32:59.978Z,7.43
2016-04-07T00:34:00.013Z,7.42
2016-04-07T00:35:00.034Z,7.39
2016-04-07T00:36:00.085Z,7.4
2016-04-07T00:37:00.104Z,7.36
2016-04-07T00:38:00.139Z,7.38
2016-04-07T00:39:00.205Z,7.31
2016-04-07T00:40:00.208Z,7.32
2016-04-07T00:41:00.243Z,7.31
2016-04-07T00:42:00.277Z,7.21
2016-04-07T00:43:00.312Z,7.21
2016-04-07T00:44:00.362Z,7.29
2016-04-07T00:45:00.364Z,7.25
2016-04-07T00:46:00.415Z,7.28
2016-04-07T00:47:00.432Z,7.28
2016-04-07T00:48:00.481Z,7.33
2016-04-07T00:49:00.500Z,7.36
2016-04-07T00:50:00.534Z,7.31
2016-04-07T00:51:00.568Z,7.29
2016-04-07T00:52:00.602Z,7.23
2016-04-07T00:53:00.636Z,7.21
2016-04-07T00:54:00.654Z,7.18
2016-04-07T00:55:00.704Z,7.11
2016-04-07T00:56:00.722Z,7.25
2016-04-07T00:57:00.756Z,7.25
2016-04-07T00:58:00.790Z,7.29
2016-04-07T00:59:00.808Z,7.28
2016-04-07T01:00:00.858Z,7.15
2016-04-07T01:01:00.892Z,7.21
2016-04-07T01:02:00.926Z,7.06
2016-04-07T01:03:00.960Z,7.11
2016-04-07T01:04:00.978Z,7.13
2016-04-07T01:05:01.028Z,7.11
2016-04-07T01:06:01.062Z,7.1
2016-04-07T01:07:01.096Z,7.11
2016-04-07T01:08:01.130Z,7.15
2016-04-07T01:09:01.164Z,7.11
2016-04-07T01:10:01.197Z,7.15
2016-04-07T01:11:01.216Z,7.06
2016-04-07T01:12:01.094Z,7.13
2016-04-07T01:13:01.284Z,7.06
2016-04-07T01:14:01.333Z,6.97
2016-04-07T01:15:01.352Z,6.99
2016-04-07T01:16:01.385Z,7
2016-04-07T01:17:01.419Z,6.99
2016-04-07T01:18:01.453Z,6.99
2016-04-07T01:19:01.487Z,7.06
2016-04-07T01:20:01.521Z,7.02
2016-04-07T01:21:01.524Z,6.96
2016-04-07T01:22:01.573Z,7
2016-04-07T01:23:01.607Z,6.99
2016-04-07T01:24:01.641Z,7.02
2016-04-07T01:25:01.675Z,6.96
2016-04-07T01:26:01.725Z,7.02
2016-04-07T01:27:01.743Z,6.97
2016-04-07T01:28:01.761Z,6.96
2016-04-07T01:29:01.795Z,7.02
2016-04-07T01:30:01.845Z,7.03
2016-04-07T01:31:01.878Z,7.06
2016-04-07T01:32:01.913Z,6.97
2016-04-07T01:33:01.931Z,7.02
2016-04-07T01:34:01.965Z,6.93
2016-04-07T01:35:01.999Z,6.96
2016-04-07T01:36:02.049Z,6.92
2016-04-07T01:37:02.067Z,6.95
2016-04-07T01:38:02.102Z,6.95
2016-04-07T01:39:02.135Z,6.89
2016-04-07T01:40:02.185Z,6.95
2016-04-07T01:41:02.202Z,7.06
2016-04-07T01:42:02.237Z,7.03
2016-04-07T01:43:02.255Z,7.05
2016-04-07T01:44:02.289Z,7.13
2016-04-07T01:45:02.338Z,7.07
2016-04-07T01:46:02.357Z,7.1
2016-04-07T01:47:02.375Z,7.14
2016-04-07T01:48:02.424Z,7.1
2016-04-07T01:49:02.459Z,7.14
2016-04-07T01:50:02.477Z,7.1
2016-04-07T01:51:02.511Z,7.1
2016-04-07T01:52:02.545Z,7.11
2016-04-07T01:53:02.595Z,7.1
2016-04-07T01:54:02.612Z,7.06
2016-04-07T01:55:02.662Z,7.07
2016-04-07T01:56:02.681Z,7.1
2016-04-07T01:57:02.714Z,7.17
2016-04-07T01:58:02.748Z,7.14
2016-04-07T01:59:02.782Z,7.11
2016-04-07T02:00:02.816Z,7.14
2016-04-07T02:01:02.834Z,7.1
2016-04-07T02:02:02.869Z,7.15
2016-04-07T02:03:02.902Z,7.11
2016-04-07T02:04:02.936Z,7.18
2016-04-07T02:05:02.986Z,7.14
2016-04-07T02:06:03.004Z,7.05
2016-04-07T02:07:03.038Z,7.13
2016-04-07T02:08:03.072Z,7.23
2016-04-07T02:09:03.106Z,7.33
2016-04-07T02:10:03.141Z,7.29
2016-04-07T02:11:03.174Z,7.35
2016-04-07T02:12:03.192Z,7.28
2016-04-07T02:13:03.227Z,7.28
2016-04-07T02:14:03.260Z,7.33
2016-04-07T02:15:03.294Z,7.25
2016-04-07T02:16:03.329Z,7.35
2016-04-07T02:17:03.362Z,7.36
2016-04-07T02:18:03.427Z,7.25
2016-04-07T02:19:03.430Z,7.35
2016-04-07T02:20:03.464Z,7.39
2016-04-07T02:21:03.498Z,7.39
2016-04-07T02:22:03.516Z,7.43
2016-04-07T02:23:03.565Z,7.39
2016-04-07T02:24:03.584Z,7.4
2016-04-07T02:25:03.618Z,7.47
2016-04-07T02:26:03.652Z,7.39
2016-04-07T02:27:03.686Z,7.51
2016-04-07T02:28:03.720Z,7.38
2016-04-07T02:29:03.754Z,7.42
2016-04-07T02:30:03.788Z,7.45
2016-04-07T02:31:03.822Z,7.51
2016-04-07T02:32:03.839Z,7.57
2016-04-07T02:33:03.874Z,7.56
2016-04-07T02:34:03.923Z,7.58
2016-04-07T02:35:03.942Z,7.6
2016-04-07T02:36:04.008Z,7.53
2016-04-07T02:37:04.010Z,7.58
2016-04-07T02:38:04.058Z,7.58
2016-04-07T02:39:04.077Z,7.54
2016-04-07T02:40:04.111Z,7.58
2016-04-07T02:41:04.145Z,7.53
2016-04-07T02:42:04.179Z,7.47
2016-04-07T02:43:04.229Z,7.45
2016-04-07T02:44:04.247Z,7.45
2016-04-07T02:45:04.281Z,7.45
2016-04-07T02:46:04.299Z,7.47
2016-04-07T02:47:04.333Z,7.51
2016-04-07T02:48:04.368Z,7.43
2016-04-07T02:49:04.401Z,7.45
2016-04-07T02:50:04.435Z,7.53
2016-04-07T02:51:04.469Z,7.53
2016-04-07T02:52:04.518Z,7.5
2016-04-07T02:53:04.537Z,7.47
2016-04-07T02:54:04.571Z,7.48
2016-04-07T02:55:04.621Z,7.48
2016-04-07T02:56:04.623Z,7.43
2016-04-07T02:57:04.673Z,7.42
2016-04-07T02:58:04.691Z,7.51
2016-04-07T02:59:04.725Z,7.36
2016-04-07T03:00:04.759Z,7.33
2016-04-07T03:01:04.793Z,7.45
2016-04-07T03:02:04.827Z,7.47
2016-04-07T03:03:04.705Z,7.56
2016-04-07T03:04:04.895Z,7.47
2016-04-07T03:05:04.914Z,7.51
2016-04-07T03:06:04.947Z,7.48
2016-04-07T03:07:04.981Z,7.54
2016-04-07T03:08:05.015Z,7.5
2016-04-07T03:09:05.049Z,7.5
2016-04-07T03:10:05.083Z,7.39
2016-04-07T03:11:05.117Z,7.39
2016-04-07T03:12:05.151Z,7.36
2016-04-07T03:13:05.184Z,7.39
2016-04-07T03:14:05.234Z,7.4
2016-04-07T03:15:05.252Z,7.39
2016-04-07T03:16:05.286Z,7.35
2016-04-07T03:17:05.320Z,7.38
2016-04-07T03:18:05.354Z,7.38
2016-04-07T03:19:05.372Z,7.35
2016-04-07T03:20:05.438Z,7.38
2016-04-07T03:21:05.440Z,7.39
2016-04-07T03:22:05.474Z,7.39
2016-04-07T03:23:05.523Z,7.39
2016-04-07T03:24:05.542Z,7.38
2016-04-07T03:25:05.420Z,7.5
2016-04-07T03:26:05.610Z,7.48
2016-04-07T03:27:05.628Z,7.5
2016-04-07T03:28:05.678Z,7.42
2016-04-07T03:29:05.712Z,7.39
2016-04-07T03:30:05.730Z,7.4
2016-04-07T03:31:05.764Z,7.39
2016-04-07T03:32:05.814Z,7.33
2016-04-07T03:33:05.848Z,7.38
2016-04-07T03:34:05.881Z,7.36
2016-04-07T03:35:05.744Z,7.39
2016-04-07T03:36:05.934Z,7.39
2016-04-07T03:37:05.968Z,7.38
2016-04-07T03:38:06.002Z,7.39
2016-04-07T03:39:06.020Z,7.33
2016-04-07T03:40:06.070Z,7.35
2016-04-07T03:41:06.088Z,7.36
2016-04-07T03:42:06.138Z,7.29
2016-04-07T03:43:06.187Z,7.33
2016-04-07T03:44:06.191Z,7.35
2016-04-07T03:45:06.224Z,7.25
2016-04-07T03:46:06.258Z,7.24
2016-04-07T03:47:06.292Z,7.18
2016-04-07T03:48:06.340Z,7.29
2016-04-07T03:49:06.359Z,7.25
2016-04-07T03:50:06.393Z,7.24
2016-04-07T03:51:06.412Z,7.13
2016-04-07T03:52:06.461Z,7.15
2016-04-07T03:53:06.480Z,7.18
2016-04-07T03:54:06.530Z,7.14
2016-04-07T03:55:06.563Z,7.24
2016-04-07T03:56:06.565Z,7.14
2016-04-07T03:57:06.615Z,7.17
2016-04-07T03:58:06.649Z,7.14
2016-04-07T03:59:06.683Z,7.14
2016-04-07T04:00:06.717Z,6.99
2016-04-07T04:01:06.736Z,7.05
2016-04-07T04:02:06.769Z,6.99
2016-04-07T04:03:06.803Z,7.07
2016-04-07T04:04:06.837Z,7.03
2016-04-07T04:05:06.887Z,7.07
2016-04-07T04:06:06.889Z,7.05
2016-04-07T04:07:06.923Z,7.15
2016-04-07T04:08:06.958Z,7.07
2016-04-07T04:09:07.023Z,7.07
2016-04-07T04:10:07.041Z,7.06
2016-04-07T04:11:07.075Z,7
2016-04-07T04:12:07.109Z,7.07
2016-04-07T04:13:07.127Z,7
2016-04-07T04:14:07.161Z,7.02
2016-04-07T04:15:07.039Z,6.96
2016-04-07T04:16:07.229Z,6.95
2016-04-07T04:17:07.263Z,7
2016-04-07T04:18:07.297Z,6.97
2016-04-07T04:19:07.331Z,7.03
2016-04-07T04:20:07.349Z,7.13
2016-04-07T04:21:07.399Z,7.03
2016-04-07T04:22:07.433Z,7.11
2016-04-07T04:23:07.451Z,7.03
2016-04-07T04:24:07.594Z,6.97
2016-04-07T04:25:07.519Z,6.99
2016-04-07T04:26:07.553Z,7.02
2016-04-07T04:27:07.602Z,6.99
2016-04-07T04:28:07.621Z,7.02
2016-04-07T04:29:07.655Z,7.06
2016-04-07T04:30:07.688Z,7
2016-04-07T04:31:07.706Z,6.87
2016-04-07T04:32:07.740Z,6.95
2016-04-07T04:33:07.790Z,6.89
2016-04-07T04:34:07.825Z,7.02
2016-04-07T04:35:07.842Z,6.93
2016-04-07T04:36:07.876Z,6.88
2016-04-07T04:37:07.894Z,6.89
2016-04-07T04:38:07.928Z,6.88
2016-04-07T04:39:08.056Z,7
2016-04-07T04:40:07.997Z,6.99
2016-04-07T04:41:08.047Z,7.02
2016-04-07T04:42:08.064Z,6.97
2016-04-07T04:43:08.098Z,7.02
2016-04-07T04:44:08.132Z,6.93
2016-04-07T04:45:08.166Z,6.93
2016-04-07T04:46:08.216Z,6.97
2016-04-07T04:47:08.234Z,7.03
2016-04-07T04:48:08.268Z,6.93
2016-04-07T04:49:08.146Z,7
2016-04-07T04:50:08.321Z,7.02
2016-04-07T04:51:08.354Z,6.92
2016-04-07T04:52:08.388Z,6.96
2016-04-07T04:53:08.422Z,7.11
2016-04-07T04:54:08.582Z,7.07
2016-04-07T04:55:08.490Z,7.1
2016-04-07T04:56:08.540Z,6.89
2016-04-07T04:57:08.543Z,6.97
2016-04-07T04:58:08.576Z,6.95
2016-04-07T04:59:08.626Z,6.95
2016-04-07T05:00:08.644Z,6.96
2016-04-07T05:01:08.678Z,6.99
2016-04-07T05:02:08.728Z,6.93
2016-04-07T05:03:08.746Z,7
2016-04-07T05:04:08.780Z,7
2016-04-07T05:05:08.814Z,7
2016-04-07T05:06:08.832Z,6.97
2016-04-07T05:07:08.882Z,7.02
2016-04-07T05:08:08.900Z,7
2016-04-07T05:09:08.965Z,7.03
2016-04-07T05:10:08.811Z,7.13
2016-04-07T05:11:09.017Z,7.07
2016-04-07T05:12:09.036Z,7.07
2016-04-07T05:13:09.085Z,7.14
2016-04-07T05:14:09.104Z,7.1
2016-04-07T05:15:09.138Z,6.96
2016-04-07T05:16:09.188Z,7.11
2016-04-07T05:17:09.205Z,7.11
2016-04-07T05:18:09.239Z,7.15
2016-04-07T05:19:09.258Z,7.02
2016-04-07T05:20:09.291Z,7.05
2016-04-07T05:21:09.326Z,7.1
2016-04-07T05:22:09.360Z,7.15
2016-04-07T05:23:09.393Z,7.1
2016-04-07T05:24:09.334Z,7.1
2016-04-07T05:25:09.461Z,7.17
2016-04-07T05:26:09.495Z,7.18
2016-04-07T05:27:09.529Z,7.15
2016-04-07T05:28:09.563Z,7.29
2016-04-07T05:29:09.582Z,7.33
2016-04-07T05:30:09.631Z,7.25
2016-04-07T05:31:09.649Z,7.31
2016-04-07T05:32:09.683Z,7.39
2016-04-07T05:33:09.717Z,7.42
2016-04-07T05:34:09.751Z,7.45
2016-04-07T05:35:09.785Z,7.51
2016-04-07T05:36:09.819Z,7.38
2016-04-07T05:37:09.853Z,7.36
2016-04-07T05:38:09.887Z,7.38
2016-04-07T05:39:09.953Z,7.56
2016-04-07T05:40:09.939Z,7.56
2016-04-07T05:41:09.989Z,7.61
2016-04-07T05:42:10.007Z,7.67
2016-04-07T05:43:10.056Z,7.73
2016-04-07T05:44:10.091Z,7.79
2016-04-07T05:45:10.109Z,7.95
2016-04-07T05:46:10.143Z,8.03
2016-04-07T05:47:10.177Z,7.97
2016-04-07T05:48:10.211Z,7.93
2016-04-07T05:49:10.245Z,7.83
2016-04-07T05:50:10.279Z,7.77
2016-04-07T05:51:10.297Z,7.82
2016-04-07T05:52:10.331Z,7.79
2016-04-07T05:53:10.380Z,7.83
2016-04-07T05:54:10.540Z,7.77
2016-04-07T05:55:10.433Z,7.75
2016-04-07T05:56:10.467Z,7.91
2016-04-07T05:57:10.516Z,7.76
2016-04-07T05:58:10.534Z,7.85
2016-04-07T05:59:10.568Z,8
2016-04-07T06:00:10.602Z,8.03
2016-04-07T06:01:10.651Z,7.91
2016-04-07T06:02:10.670Z,7.91
2016-04-07T06:03:10.704Z,7.9
2016-04-07T06:04:10.754Z,7.76
2016-04-07T06:05:10.772Z,7.61
2016-04-07T06:06:10.806Z,7.82
2016-04-07T06:07:10.839Z,7.76
2016-04-07T06:08:10.873Z,7.7
2016-04-07T06:09:10.803Z,7.72
2016-04-07T06:10:10.947Z,7.75
2016-04-07T06:11:10.965Z,7.8
2016-04-07T06:12:10.999Z,7.77
2016-04-07T06:13:11.049Z,7.79
2016-04-07T06:14:11.052Z,7.72
2016-04-07T06:15:11.085Z,7.76
2016-04-07T06:16:11.135Z,7.75
2016-04-07T06:17:11.153Z,7.82
2016-04-07T06:18:11.187Z,7.76
2016-04-07T06:19:11.236Z,7.8
2016-04-07T06:20:11.255Z,7.82
2016-04-07T06:21:11.289Z,7.9
2016-04-07T06:22:11.323Z,7.94
2016-04-07T06:23:11.357Z,7.98
2016-04-07T06:24:11.468Z,7.83
2016-04-07T06:25:11.424Z,7.88
2016-04-07T06:26:11.458Z,7.94
2016-04-07T06:27:11.492Z,7.98
2016-04-07T06:28:11.526Z,7.9
2016-04-07T06:29:11.560Z,8.01
2016-04-07T06:30:11.594Z,7.95
2016-04-07T06:31:11.628Z,8.03
2016-04-07T06:32:11.646Z,7.98
2016-04-07T06:33:11.695Z,8.1
2016-04-07T06:34:11.730Z,7.95
2016-04-07T06:35:11.748Z,8.01
2016-04-07T06:36:11.798Z,7.98
2016-04-07T06:37:11.816Z,7.94
2016-04-07T06:38:11.709Z,7.88
2016-04-07T06:39:11.961Z,7.88
2016-04-07T06:40:11.934Z,7.82
2016-04-07T06:41:11.952Z,7.93
2016-04-07T06:42:11.986Z,7.85
2016-04-07T06:43:12.005Z,7.93
2016-04-07T06:44:12.054Z,7.85
2016-04-07T06:45:12.088Z,7.9
2016-04-07T06:46:12.121Z,7.95
2016-04-07T06:47:12.171Z,7.83
2016-04-07T06:48:12.174Z,7.85
2016-04-07T06:49:12.208Z,7.93
2016-04-07T06:50:12.258Z,7.75
2016-04-07T06:51:12.291Z,7.82
2016-04-07T06:52:12.310Z,7.85
2016-04-07T06:53:12.343Z,8.03
2016-04-07T06:54:12.377Z,8.08
2016-04-07T06:55:12.426Z,8.15
2016-04-07T06:56:12.445Z,8.03
2016-04-07T06:57:12.463Z,8.15
2016-04-07T06:58:12.513Z,8.13
2016-04-07T06:59:12.548Z,8.16
2016-04-07T07:00:12.581Z,8.19
2016-04-07T07:01:12.615Z,8.18
2016-04-07T07:02:12.633Z,8.1
2016-04-07T07:03:12.683Z,8.23
2016-04-07T07:04:12.717Z,8.16
2016-04-07T07:05:12.735Z,8.26
2016-04-07T07:06:12.801Z,8.2
2016-04-07T07:07:12.819Z,8.18
2016-04-07T07:08:12.853Z,8.23
2016-04-07T07:09:12.887Z,8.34
2016-04-07T07:10:12.920Z,8.37
2016-04-07T07:11:12.955Z,8.38
2016-04-07T07:12:12.972Z,8.38
2016-04-07T07:13:13.006Z,8.51
2016-04-07T07:14:13.119Z,8.42
2016-04-07T07:15:13.075Z,8.34
2016-04-07T07:16:13.094Z,8.38
2016-04-07T07:17:18.158Z,8.26
2016-04-07T07:18:13.177Z,8.37
2016-04-07T07:19:13.210Z,8.34
2016-04-07T07:20:13.244Z,8.23
2016-04-07T07:21:13.278Z,8.31
2016-04-07T07:22:13.312Z,8.37
2016-04-07T07:23:13.346Z,8.41
2016-04-07T07:24:13.395Z,8.45
2016-04-07T07:25:13.413Z,8.49
2016-04-07T07:26:13.432Z,8.56
2016-04-07T07:27:13.482Z,8.53
2016-04-07T07:28:13.501Z,8.63
2016-04-07T07:29:13.534Z,8.64
2016-04-07T07:30:13.427Z,8.58
2016-04-07T07:31:13.648Z,8.7
2016-04-07T07:32:13.371Z,8.69
2016-04-07T07:33:13.676Z,8.81
2016-04-07T07:34:13.693Z,8.76
2016-04-07T07:35:13.743Z,8.7
2016-04-07T07:36:13.777Z,8.74
2016-04-07T07:37:13.812Z,8.95
2016-04-07T07:38:13.830Z,9
2016-04-07T07:39:13.895Z,9.02
2016-04-07T07:40:14.090Z,9.04
2016-04-07T07:41:13.936Z,9.03
2016-04-07T07:42:13.970Z,8.89
2016-04-07T07:43:14.020Z,8.79
2016-04-07T07:44:14.038Z,8.66
2016-04-07T07:45:14.072Z,8.74
2016-04-07T07:46:14.216Z,8.74
2016-04-07T07:47:14.140Z,8.69
2016-04-07T07:48:14.175Z,8.79
2016-04-07T07:49:14.224Z,8.92
2016-04-07T07:50:14.242Z,9.02
2016-04-07T07:51:14.275Z,8.91
2016-04-07T07:52:14.341Z,8.94
2016-04-07T07:53:14.343Z,8.92
2016-04-07T07:54:14.377Z,8.82
2016-04-07T07:55:14.411Z,8.85
2016-04-07T07:56:14.445Z,8.97
2016-04-07T07:57:14.495Z,9.03
2016-04-07T07:58:14.373Z,8.89
2016-04-07T07:59:14.547Z,8.84
2016-04-07T08:00:14.566Z,8.95
2016-04-07T08:01:14.459Z,8.99
2016-04-07T08:02:14.665Z,9.14
2016-04-07T08:03:14.683Z,9.4
2016-04-07T08:04:14.717Z,9.34
2016-04-07T08:05:14.751Z,9.36
2016-04-07T08:06:14.472Z,9.44
2016-04-07T08:07:14.818Z,9.51
2016-04-07T08:08:14.853Z,9.44
2016-04-07T08:09:14.887Z,9.34
2016-04-07T08:10:14.937Z,9.41
2016-04-07T08:11:14.954Z,9.46
2016-04-07T08:12:14.989Z,9.5
2016-04-07T08:13:15.038Z,9.41
2016-04-07T08:14:15.056Z,9.36
2016-04-07T08:15:15.090Z,9.34
2016-04-07T08:16:15.125Z,9.41
2016-04-07T08:17:15.159Z,9.46
2016-04-07T08:18:15.208Z,9.43
2016-04-07T08:19:15.242Z,9.51
2016-04-07T08:20:15.260Z,9.55
2016-04-07T08:21:15.310Z,9.77
2016-04-07T08:22:15.344Z,9.77
2016-04-07T08:23:15.377Z,9.72
2016-04-07T08:24:15.411Z,9.89
2016-04-07T08:25:15.429Z,9.94
2016-04-07T08:26:15.463Z,9.86
2016-04-07T08:27:15.497Z,9.84
2016-04-07T08:28:15.547Z,9.58
2016-04-07T08:29:15.582Z,9.5
2016-04-07T08:30:15.631Z,9.66
2016-04-07T08:31:15.665Z,10.04
2016-04-07T08:32:15.683Z,10.4
2016-04-07T08:33:15.717Z,10.38
2016-04-07T08:34:15.751Z,10.05
2016-04-07T08:35:15.831Z,9.8
2016-04-07T08:36:15.842Z,9.87
2016-04-07T08:37:15.854Z,10.37
2016-04-07T08:38:15.888Z,10.56
2016-04-07T08:39:15.938Z,10.4
2016-04-07T08:40:16.018Z,10.15
2016-04-07T08:41:16.005Z,10.6
2016-04-07T08:42:16.038Z,11.04
2016-04-07T08:43:16.073Z,10.97
2016-04-07T08:44:16.091Z,10.56
2016-04-07T08:45:16.125Z,10.31
2016-04-07T08:46:16.160Z,10.04
2016-04-07T08:47:16.209Z,9.89
2016-04-07T08:48:16.227Z,9.73
2016-04-07T08:49:16.354Z,9.77
2016-04-07T08:50:16.310Z,9.79
2016-04-07T08:51:16.344Z,9.76
2016-04-07T08:52:16.378Z,9.69
2016-04-07T08:53:16.412Z,9.62
2016-04-07T08:54:16.446Z,9.48
2016-04-07T08:55:17.651Z,9.69
2016-04-07T08:56:16.514Z,9.87
2016-04-07T08:57:16.548Z,9.95
2016-04-07T08:58:16.597Z,9.86
2016-04-07T08:59:16.647Z,9.91
2016-04-07T09:00:16.665Z,10.02
2016-04-07T09:01:16.684Z,9.99
2016-04-07T09:02:16.734Z,9.87
2016-04-07T09:03:16.767Z,9.76
2016-04-07T09:04:16.801Z,10.01
2016-04-07T09:05:16.819Z,10.31
2016-04-07T09:06:16.853Z,10.49
2016-04-07T09:07:17.933Z,10.51
2016-04-07T09:08:16.921Z,10.35
2016-04-07T09:09:16.971Z,10.38
2016-04-07T09:10:17.021Z,10.57
2016-04-07T09:11:17.038Z,10.72
2016-04-07T09:12:17.073Z,10.76
2016-04-07T09:13:17.122Z,10.53
2016-04-07T09:14:17.141Z,10.57
2016-04-07T09:15:17.174Z,10.81
2016-04-07T09:16:17.208Z,10.87
2016-04-07T09:17:17.258Z,11.08
2016-04-07T09:18:17.307Z,11.05
2016-04-07T09:19:17.341Z,10.86
2016-04-07T09:20:17.375Z,10.97
2016-04-07T09:21:17.426Z,11.07
2016-04-07T09:22:17.483Z,11.18
2016-04-07T09:23:17.553Z,11.23
2016-04-07T09:24:17.623Z,11.15
2016-04-07T09:25:17.537Z,11.08
2016-04-07T09:26:17.764Z,10.89
2016-04-07T09:27:17.835Z,11.04
2016-04-07T09:28:17.883Z,11.04
2016-04-07T09:29:17.945Z,11.15
2016-04-07T09:30:17.976Z,11.07
2016-04-07T09:31:18.039Z,10.86
2016-04-07T09:32:18.065Z,10.67
2016-04-07T09:33:18.119Z,10.76
2016-04-07T09:34:18.157Z,10.75
2016-04-07T09:35:18.055Z,10.63
2016-04-07T09:36:18.250Z,10.44
2016-04-07T09:37:18.286Z,10.51
2016-04-07T09:38:18.166Z,10.38
2016-04-07T09:39:18.359Z,10.3
2016-04-07T09:40:18.395Z,10.4
2016-04-07T09:41:18.430Z,10.31
2016-04-07T09:42:18.466Z,10.34
2016-04-07T09:43:18.516Z,10.34
2016-04-07T09:44:18.551Z,10.26
2016-04-07T09:45:18.569Z,10.37
2016-04-07T09:46:18.604Z,10.34
2016-04-07T09:47:18.654Z,10.09
2016-04-07T09:48:18.688Z,10.04
2016-04-07T09:49:18.722Z,9.89
2016-04-07T09:50:18.756Z,9.89
2016-04-07T09:51:18.790Z,9.94
2016-04-07T09:52:18.839Z,10.09
2016-04-07T09:53:18.873Z,10.05
2016-04-07T09:54:18.891Z,10.17
2016-04-07T09:55:18.926Z,10.35
2016-04-07T09:56:18.975Z,10.63
2016-04-07T09:57:18.993Z,10.89
2016-04-07T09:58:19.027Z,10.86
2016-04-07T09:59:19.093Z,10.97
2016-04-07T10:00:19.110Z,10.99
2016-04-07T10:01:19.160Z,10.86
2016-04-07T10:02:19.178Z,10.84
2016-04-07T10:03:19.212Z,10.84
2016-04-07T10:04:19.231Z,10.93
2016-04-07T10:05:19.265Z,11
2016-04-07T10:06:19.315Z,10.97
2016-04-07T10:07:19.349Z,11.04
2016-04-07T10:08:19.428Z,11.04
2016-04-07T10:09:19.416Z,11.08
2016-04-07T10:10:19.466Z,11.04
2016-04-07T10:11:19.484Z,11.12
2016-04-07T10:12:19.517Z,11.15
2016-04-07T10:13:19.567Z,11.08
2016-04-07T10:14:19.602Z,11.25
2016-04-07T10:15:19.635Z,11.1
2016-04-07T10:16:19.670Z,11.08
2016-04-07T10:17:19.719Z,11.12
2016-04-07T10:18:19.738Z,11.22
2016-04-07T10:19:19.787Z,11.22
2016-04-07T10:20:19.805Z,11.1
2016-04-07T10:21:19.839Z,11.27
2016-04-07T10:22:19.873Z,11.07
2016-04-07T10:23:19.908Z,11.05
2016-04-07T10:24:19.941Z,11.12
2016-04-07T10:25:19.991Z,11.1
2016-04-07T10:26:20.010Z,11
2016-04-07T10:27:20.058Z,10.87
2016-04-07T10:28:20.077Z,10.69
2016-04-07T10:29:20.126Z,10.57
2016-04-07T10:30:20.160Z,10.44
2016-04-07T10:31:20.193Z,10.35
2016-04-07T10:32:20.228Z,10.42
2016-04-07T10:33:20.278Z,10.38
2016-04-07T10:34:20.296Z,10.35
2016-04-07T10:35:20.346Z,10.41
2016-04-07T10:36:20.364Z,10.41
2016-04-07T10:37:20.398Z,10.37
2016-04-07T10:38:20.447Z,10.38
2016-04-07T10:39:20.497Z,10.34
2016-04-07T10:40:20.561Z,10.38
2016-04-07T10:41:20.533Z,10.34
2016-04-07T10:42:20.583Z,10.31
2016-04-07T10:43:20.617Z,10.28
2016-04-07T10:44:20.667Z,10.25
2016-04-07T10:45:20.717Z,10.26
2016-04-07T10:46:20.719Z,10.28
2016-04-07T10:47:20.753Z,10.28
2016-04-07T10:48:20.803Z,10.35
2016-04-07T10:49:20.836Z,10.4
2016-04-07T10:50:20.870Z,10.41
2016-04-07T10:51:20.889Z,10.48
2016-04-07T10:52:20.923Z,10.57
2016-04-07T10:53:20.957Z,10.54
2016-04-07T10:54:20.991Z,10.67
2016-04-07T10:55:21.024Z,10.72
2016-04-07T10:56:21.074Z,10.61
2016-04-07T10:57:21.108Z,10.75
2016-04-07T10:58:21.126Z,10.76
2016-04-07T10:59:21.176Z,10.84
2016-04-07T11:00:21.225Z,10.99
2016-04-07T11:01:21.274Z,11.05
2016-04-07T11:02:21.277Z,11.08
2016-04-07T11:03:21.327Z,11.15
2016-04-07T11:04:21.362Z,11.15
2016-04-07T11:05:21.379Z,11.11
2016-04-07T11:06:21.413Z,11.04
2016-04-07T11:07:21.447Z,11.11
2016-04-07T11:08:21.481Z,11.12
2016-04-07T11:09:21.530Z,11.23
2016-04-07T11:10:21.564Z,11.25
2016-04-07T11:11:21.614Z,11.36
2016-04-07T11:12:21.633Z,11.3
2016-04-07T11:13:21.667Z,11.37
2016-04-07T11:14:21.701Z,11.52
2016-04-07T11:15:21.734Z,11.48
2016-04-07T11:16:21.769Z,11.43
2016-04-07T11:17:21.802Z,11.27
2016-04-07T11:18:21.867Z,11.25
2016-04-07T11:19:21.886Z,11.43
2016-04-07T11:20:21.920Z,11.44
2016-04-07T11:21:21.970Z,11.48
2016-04-07T11:22:21.972Z,11.6
2016-04-07T11:23:22.022Z,11.57
2016-04-07T11:24:22.055Z,11.66
2016-04-07T11:25:22.089Z,11.62
2016-04-07T11:26:22.123Z,11.54
2016-04-07T11:27:22.157Z,11.52
2016-04-07T11:28:22.207Z,11.36
2016-04-07T11:29:22.241Z,11.32
2016-04-07T11:30:22.260Z,11.18
2016-04-07T11:31:22.309Z,11.19
2016-04-07T11:32:22.343Z,11.27
2016-04-07T11:33:22.377Z,11.4
2016-04-07T11:34:22.442Z,11.26
2016-04-07T11:35:22.460Z,11.25
2016-04-07T11:36:22.494Z,11.25
2016-04-07T11:37:22.528Z,11.18
2016-04-07T11:38:22.562Z,11.27
2016-04-07T11:39:22.596Z,11.35
2016-04-07T11:40:22.615Z,11.4
2016-04-07T11:41:22.664Z,11.37
2016-04-07T11:42:22.698Z,11.43
2016-04-07T11:43:22.748Z,11.54
2016-04-07T11:44:22.765Z,11.69
2016-04-07T11:45:22.800Z,11.84
2016-04-07T11:46:22.850Z,11.66
2016-04-07T11:47:22.883Z,11.68
2016-04-07T11:48:22.901Z,11.69
2016-04-07T11:49:22.951Z,11.51
2016-04-07T11:50:23.016Z,11.54
2016-04-07T11:51:23.019Z,11.52
2016-04-07T11:52:23.100Z,11.59
2016-04-07T11:53:23.086Z,11.44
2016-04-07T11:54:23.121Z,11.51
2016-04-07T11:55:23.514Z,11.44
2016-04-07T11:56:23.205Z,11.5
2016-04-07T11:57:23.238Z,11.45
2016-04-07T11:58:23.272Z,11.62
2016-04-07T11:59:23.306Z,11.7
2016-04-07T12:00:23.340Z,11.78
2016-04-07T12:01:23.390Z,11.8
2016-04-07T12:02:23.408Z,11.7
2016-04-07T12:03:23.441Z,11.59
2016-04-07T12:04:23.491Z,11.73
2016-04-07T12:05:23.526Z,11.69
2016-04-07T12:06:23.543Z,11.57
2016-04-07T12:07:23.593Z,11.57
2016-04-07T12:08:23.643Z,11.63
2016-04-07T12:09:23.645Z,11.66
2016-04-07T12:10:23.742Z,11.73
2016-04-07T12:11:23.728Z,11.68
2016-04-07T12:12:23.762Z,11.68
2016-04-07T12:13:23.797Z,11.75
2016-04-07T12:14:23.831Z,12
2016-04-07T12:15:23.896Z,12.02
2016-04-07T12:16:23.914Z,11.99
2016-04-07T12:17:23.933Z,12
2016-04-07T12:18:23.997Z,12.12
2016-04-07T12:19:24.016Z,11.97
2016-04-07T12:20:24.066Z,11.99
2016-04-07T12:21:24.099Z,11.94
2016-04-07T12:22:24.117Z,11.97
2016-04-07T12:23:24.151Z,11.8
2016-04-07T12:24:24.201Z,11.81
2016-04-07T12:25:24.125Z,11.94
2016-04-07T12:26:24.269Z,11.99
2016-04-07T12:27:24.303Z,11.86
2016-04-07T12:28:24.337Z,11.88
2016-04-07T12:29:24.371Z,11.9
2016-04-07T12:30:24.421Z,11.91
2016-04-07T12:31:24.438Z,11.87
2016-04-07T12:32:24.473Z,11.97
2016-04-07T12:33:24.506Z,12.07
2016-04-07T12:34:24.540Z,12.02
2016-04-07T12:35:24.590Z,12.24
2016-04-07T12:36:24.624Z,12.21
2016-04-07T12:37:24.674Z,12.27
2016-04-07T12:38:24.707Z,12.42
2016-04-07T12:39:24.726Z,12.37
2016-04-07T12:40:25.353Z,12.47
2016-04-07T12:41:24.825Z,12.39
2016-04-07T12:42:24.828Z,12.27
2016-04-07T12:43:24.862Z,12.18
2016-04-07T12:44:24.927Z,12.17
2016-04-07T12:45:24.961Z,11.99
2016-04-07T12:46:24.979Z,11.9
2016-04-07T12:47:25.091Z,11.99
2016-04-07T12:48:25.062Z,12.18
2016-04-07T12:49:25.080Z,12.29
2016-04-07T12:50:25.130Z,12.13
2016-04-07T12:51:25.227Z,12.12
2016-04-07T12:52:25.213Z,12.06
2016-04-07T12:53:25.248Z,12.04
2016-04-07T12:54:25.266Z,12.17
2016-04-07T12:55:25.378Z,12.32
2016-04-07T12:56:25.337Z,12.22
2016-04-07T12:57:25.371Z,12.4
2016-04-07T12:58:25.405Z,12.37
2016-04-07T12:59:25.438Z,12.29
2016-04-07T13:00:25.472Z,12.24
2016-04-07T13:01:25.522Z,12.32
2016-04-07T13:02:25.557Z,12.4
2016-04-07T13:03:25.590Z,12.45
2016-04-07T13:04:25.640Z,12.31
2016-04-07T13:05:25.674Z,12.22
2016-04-07T13:06:25.707Z,12.21
2016-04-07T13:07:25.741Z,12.18
2016-04-07T13:08:25.776Z,12.29
2016-04-07T13:09:25.809Z,12.21
2016-04-07T13:10:26.015Z,12.27
2016-04-07T13:11:25.893Z,12.21
2016-04-07T13:12:25.942Z,12
2016-04-07T13:13:25.946Z,12.03
2016-04-07T13:14:25.995Z,12.09